Observation data for Seagraves on 12/13/2018      Previous  Date       Current Mesonet Observations  Soil Data  Daily Summary Page  Observations in Plain Language
KSGV 130605Z 23009KT 07/04 A2972 RMK A01 T00700041  RH  083%=      5-min Rain = 0
KSGV 130610Z 23009KT 07/04 A2972 RMK A01 T00710040  RH  083%=      5-min Rain = 0
KSGV 130615Z 23009KT 07/04 A2972 RMK A01 T00710041  RH  083%=      5-min Rain = 0
KSGV 130620Z 23009KT 07/04 A2972 RMK A01 T00720041  RH  083%=      5-min Rain = 0
KSGV 130625Z 23008KT 07/04 A2971 RMK A01 T00710041  RH  083%=      5-min Rain = 0
KSGV 130630Z 23009KT 07/04 A2971 RMK A01 T00690040  RH  084%=      5-min Rain = 0
KSGV 130635Z 23009KT 07/04 A2971 RMK A01 T00680040  RH  084%=      5-min Rain = 0
KSGV 130640Z 22008KT 07/04 A2971 RMK A01 T00670040  RH  084%=      5-min Rain = 0
KSGV 130645Z 22008KT 07/04 A2971 RMK A01 T00670040  RH  085%=      5-min Rain = 0
KSGV 130650Z 22008KT 07/04 A2971 RMK A01 T00660039  RH  085%=      5-min Rain = 0
KSGV 130655Z 22008KT 06/04 A2971 RMK A01 T00630038  RH  086%=      5-min Rain = 0
KSGV 130700Z 22008KT 06/04 A297 RMK A01 T00610037  RH  086%=      5-min Rain = 0
KSGV 130705Z 22007KT 06/04 A297 RMK A01 T00590037  RH  087%=      5-min Rain = 0
KSGV 130710Z 22007KT 06/04 A297 RMK A01 T00590036  RH  087%=      5-min Rain = 0
KSGV 130715Z 22007KT 06/04 A297 RMK A01 T00580036  RH  088%=      5-min Rain = 0
KSGV 130720Z 22007KT 06/04 A297 RMK A01 T00580036  RH  088%=      5-min Rain = 0
KSGV 130725Z 22007KT 06/04 A2969 RMK A01 T00570036  RH  088%=      5-min Rain = 0
KSGV 130730Z 23007KT 06/04 A2969 RMK A01 T00580038  RH  089%=      5-min Rain = 0
KSGV 130735Z 23007KT 06/04 A2969 RMK A01 T00600040  RH  088%=      5-min Rain = 0
KSGV 130740Z 23008KT 06/04 A2969 RMK A01 T00630041  RH  088%=      5-min Rain = 0
KSGV 130745Z 23008KT 07/04 A2969 RMK A01 T00650041  RH  087%=      5-min Rain = 0
KSGV 130750Z 24008KT 07/04 A297 RMK A01 T00660041  RH  086%=      5-min Rain = 0
KSGV 130755Z 25010G18KT 07/04 A2971 RMK A01 T00670042  RH  086%=      5-min Rain = 0
KSGV 130800Z 26013G20KT 07/04 A2971 RMK A01 T00720042  RH  083%=      5-min Rain = 0
KSGV 130805Z 27013KT 08/04 A2971 RMK A01 T00770040  RH  079%=      5-min Rain = 0
KSGV 130810Z 27013KT 08/04 A2971 RMK A01 T00780038  RH  077%=      5-min Rain = 0
KSGV 130815Z 27013KT 08/04 A2971 RMK A01 T00780038  RH  077%=      5-min Rain = 0
KSGV 130820Z 28013KT 08/04 A2971 RMK A01 T00790038  RH  077%=      5-min Rain = 0
KSGV 130825Z 28014KT 08/04 A2971 RMK A01 T00820037  RH  075%=      5-min Rain = 0
KSGV 130830Z 30013G18KT 08/04 A297 RMK A01 T00840036  RH  073%=      5-min Rain = 0
KSGV 130835Z 30015G20KT 09/03 A297 RMK A01 T00900034  RH  069%=      5-min Rain = 0
KSGV 130840Z 31019G26KT 10/03 A297 RMK A01 T00950029  RH  065%=      5-min Rain = 0
KSGV 130845Z 30016KT 09/03 A2971 RMK A01 T00940028  RH  064%=      5-min Rain = 0
KSGV 130850Z 30016G24KT 10/02 A2971 RMK A01 T00950024  RH  062%=      5-min Rain = 0
KSGV 130855Z 31018KT 10/02 A297 RMK A01 T00960021  RH  061%=      5-min Rain = 0
KSGV 130900Z 31015KT 09/02 A2971 RMK A01 T00930023  RH  063%=      5-min Rain = 0
KSGV 130905Z 31016G22KT 09/02 A2971 RMK A01 T00920023  RH  063%=      5-min Rain = 0
KSGV 130910Z 31016G21KT 09/02 A2971 RMK A01 T00920022  RH  062%=      5-min Rain = 0
KSGV 130915Z 31015KT 09/02 A297 RMK A01 T00910023  RH  063%=      5-min Rain = 0
KSGV 130920Z 31017KT 09/02 A297 RMK A01 T00900023  RH  064%=      5-min Rain = 0
KSGV 130925Z 30017G22KT 09/02 A2971 RMK A01 T00900022  RH  063%=      5-min Rain = 0
KSGV 130930Z 30017G24KT 09/02 A2971 RMK A01 T00890021  RH  063%=      5-min Rain = 0
KSGV 130935Z 30018G24KT 09/02 A2972 RMK A01 T00880021  RH  064%=      5-min Rain = 0
KSGV 130940Z 30019G24KT 09/02 A2971 RMK A01 T00880022  RH  064%=      5-min Rain = 0
KSGV 130945Z 30021G27KT 09/02 A2972 RMK A01 T00870022  RH  065%=      5-min Rain = 0
KSGV 130950Z 30019G28KT 09/02 A2972 RMK A01 T00850021  RH  065%=      5-min Rain = 0
KSGV 130955Z 29020G27KT 09/02 A2972 RMK A01 T00850018  RH  063%=      5-min Rain = 0
KSGV 131000Z 29019G24KT 09/01 A2972 RMK A01 T00850012  RH  061%=      5-min Rain = 0
KSGV 131005Z 29023G30KT 09/00 A2973 RMK A01 T00850001  RH  056%=      5-min Rain = 0
KSGV 131010Z 29026G37KT 09/M01 A2973 RMK A01 T00851008  RH  052%=      5-min Rain = 0
KSGV 131015Z 29028G37KT 08/M02 A2973 RMK A01 T00811016  RH  051%=      5-min Rain = 0
KSGV 131020Z 29028G37KT 08/M02 A2974 RMK A01 T00771022  RH  050%=      5-min Rain = 0
KSGV 131025Z 29028G33KT 07/M03 A2974 RMK A01 T00731030  RH  048%=      5-min Rain = 0
KSGV 131030Z 29027G34KT 07/M03 A2975 RMK A01 T00711034  RH  047%=      5-min Rain = 0
KSGV 131035Z 29026G35KT 07/M03 A2975 RMK A01 T00701034  RH  048%=      5-min Rain = 0
KSGV 131040Z 29025G32KT 07/M04 A2975 RMK A01 T00691035  RH  048%=      5-min Rain = 0
KSGV 131045Z 29026G35KT 07/M04 A2976 RMK A01 T00681036  RH  048%=      5-min Rain = 0
KSGV 131050Z 30024G33KT 07/M04 A2976 RMK A01 T00661035  RH  048%=      5-min Rain = 0
KSGV 131055Z 30025G33KT 07/M04 A2976 RMK A01 T00661038  RH  048%=      5-min Rain = 0
KSGV 131100Z 30023G35KT 07/M04 A2977 RMK A01 T00651037  RH  048%=      5-min Rain = 0
KSGV 131105Z 31027G33KT 07/M04 A2977 RMK A01 T00661040  RH  047%=      5-min Rain = 0
KSGV 131110Z 31025G34KT 06/M03 A2978 RMK A01 T00641034  RH  050%=      5-min Rain = 0
KSGV 131115Z 32026G34KT 06/M01 A2979 RMK A01 T00551014  RH  062%=      5-min Rain = 0
KSGV 131120Z 33020G28KT 05/M00 A2979 RMK A01 T00501001  RH  071%=      5-min Rain = 0
KSGV 131125Z 32023G33KT 05/00 A298 RMK A01 T00460001  RH  074%=      5-min Rain = 0
KSGV 131130Z 32024G31KT 04/01 A298 RMK A01 T00390008  RH  081%=      5-min Rain = 0
KSGV 131135Z 32025G31KT 04/01 A2981 RMK A01 T00360013  RH  086%=      5-min Rain = 0
KSGV 131140Z 32022KT 03/02 A2981 RMK A01 T00330015  RH  089%=      5-min Rain = 0.01
KSGV 131145Z 32021G30KT 03/02 A2982 RMK A01 T00320017  RH  091%=      5-min Rain = 0.01
KSGV 131150Z 32020G26KT 03/02 A2983 RMK A01 T00300016  RH  092%=      5-min Rain = 0
KSGV 131155Z 32019G24KT 03/02 A2983 RMK A01 T00270015  RH  093%=      5-min Rain = 0.01
KSGV 131200Z 33020KT 03/02 A2983 RMK A01 T00260015  RH  094%=      5-min Rain = 0.01
KSGV 131205Z 35021G26KT 03/02 A2983 RMK A01 T00270015  RH  093%=      5-min Rain = 0.01
KSGV 131210Z 35019G24KT 03/01 A2984 RMK A01 T00260013  RH  093%=      5-min Rain = 0.01
KSGV 131215Z 34018G25KT 02/01 A2985 RMK A01 T00240013  RH  094%=      5-min Rain = 0.01
KSGV 131220Z 34019G24KT 02/01 A2985 RMK A01 T00230012  RH  094%=      5-min Rain = 0.01
KSGV 131225Z 35019G26KT 02/01 A2986 RMK A01 T00220010  RH  093%=      5-min Rain = 0.01
KSGV 131230Z 33016G22KT 02/01 A2986 RMK A01 T00190008  RH  093%=      5-min Rain = 0.01
KSGV 131235Z 34016KT 01/00 A2987 RMK A01 T00110002  RH  095%=      5-min Rain = 0.01
KSGV 131240Z 35017G22KT 01/00 A2987 RMK A01 T00100003  RH  096%=      5-min Rain = 0
KSGV 131245Z 35015KT 01/00 A2987 RMK A01 T00090003  RH  097%=      5-min Rain = 0.01
KSGV 131250Z 35014KT 01/00 A2987 RMK A01 T00090003  RH  097%=      5-min Rain = 0.01
KSGV 131255Z 34013KT 01/00 A2987 RMK A01 T00080001  RH  097%=      5-min Rain = 0
KSGV 131300Z 35014G19KT 01/00 A2988 RMK A01 T00070001  RH  097%=      5-min Rain = 0.01
KSGV 131305Z 35013G19KT 01/00 A2988 RMK A01 T00100004  RH  097%=      5-min Rain = 0.01
KSGV 131310Z 35013KT 01/01 A2988 RMK A01 T00120006  RH  097%=      5-min Rain = 0.01
KSGV 131315Z 34013G18KT 01/01 A2988 RMK A01 T00140007  RH  097%=      5-min Rain = 0.01
KSGV 131320Z 34013G18KT 02/01 A2988 RMK A01 T00160008  RH  096%=      5-min Rain = 0.01
KSGV 131325Z 35015G20KT 02/01 A2988 RMK A01 T00200008  RH  093%=      5-min Rain = 0.01
KSGV 131330Z 35016G22KT 02/01 A2988 RMK A01 T00230007  RH  091%=      5-min Rain = 0
KSGV 131335Z 35014G20KT 02/01 A2989 RMK A01 T00240007  RH  090%=      5-min Rain = 0.01
KSGV 131340Z 35017G22KT 03/01 A2989 RMK A01 T00260006  RH  088%=      5-min Rain = 0.01
KSGV 131345Z 35018G27KT 03/01 A2989 RMK A01 T00280006  RH  087%=      5-min Rain = 0.01
KSGV 131350Z 35017G22KT 03/01 A2989 RMK A01 T00300007  RH  086%=      5-min Rain = 0
KSGV 131355Z 35020G26KT 03/01 A2989 RMK A01 T00310007  RH  085%=      5-min Rain = 0.01
KSGV 131400Z 35019G25KT 03/01 A299 RMK A01 T00310008  RH  086%=      5-min Rain = 0
KSGV 131405Z 35021G30KT 03/01 A299 RMK A01 T00290008  RH  087%=      5-min Rain = 0.01
KSGV 131410Z 35024G31KT 03/01 A2991 RMK A01 T00280006  RH  087%=      5-min Rain = 0.01
KSGV 131415Z 36026G38KT 03/00 A2991 RMK A01 T00290004  RH  085%=      5-min Rain = 0
KSGV 131420Z 35026G35KT 03/00 A2991 RMK A01 T00290004  RH  085%=      5-min Rain = 0
KSGV 131425Z 36026G35KT 03/00 A2992 RMK A01 T00290003  RH  084%=      5-min Rain = 0
KSGV 131430Z 36020G28KT 03/00 A2992 RMK A01 T00280004  RH  085%=      5-min Rain = 0
KSGV 131435Z 00025G33KT 03/00 A2992 RMK A01 T00290002  RH  084%=      5-min Rain = 0
KSGV 131440Z 36026G36KT 03/M00 A2993 RMK A01 T00301001  RH  081%=      5-min Rain = 0
KSGV 131445Z 36026G36KT 03/M00 A2993 RMK A01 T00321004  RH  078%=      5-min Rain = 0
KSGV 131450Z 36024G35KT 03/M01 A2994 RMK A01 T00331005  RH  077%=      5-min Rain = 0
KSGV 131455Z 36029G35KT 03/M01 A2994 RMK A01 T00341010  RH  073%=      5-min Rain = 0
KSGV 131500Z 36025G33KT 03/M01 A2994 RMK A01 T00341010  RH  073%=      5-min Rain = 0
KSGV 131505Z 35024G34KT 03/M01 A2995 RMK A01 T00341010  RH  074%=      5-min Rain = 0
KSGV 131510Z 35027G38KT 03/M01 A2995 RMK A01 T00341009  RH  074%=      5-min Rain = 0
KSGV 131515Z 35031G41KT 03/M01 A2996 RMK A01 T00331010  RH  074%=      5-min Rain = 0
KSGV 131520Z 35027G34KT 03/M01 A2996 RMK A01 T00331007  RH  076%=      5-min Rain = 0
KSGV 131525Z 35027G37KT 03/M01 A2997 RMK A01 T00331005  RH  077%=      5-min Rain = 0
KSGV 131530Z 35027G38KT 04/M01 A2997 RMK A01 T00351007  RH  074%=      5-min Rain = 0
KSGV 131535Z 35024G32KT 04/M01 A2998 RMK A01 T00371007  RH  074%=      5-min Rain = 0
KSGV 131540Z 35029G36KT 04/M01 A2998 RMK A01 T00381009  RH  072%=      5-min Rain = 0
KSGV 131545Z 35031G37KT 04/M01 A2998 RMK A01 T00391012  RH  070%=      5-min Rain = 0
KSGV 131550Z 35030G41KT 04/M01 A2999 RMK A01 T00381012  RH  070%=      5-min Rain = 0
KSGV 131555Z 35031G40KT 04/M01 A2999 RMK A01 T00361013  RH  071%=      5-min Rain = 0
KSGV 131600Z 35031G41KT 04/M02 A30 RMK A01 T00371016  RH  069%=      5-min Rain = 0
KSGV 131605Z 35024G32KT 04/M01 A30 RMK A01 T00381014  RH  069%=      5-min Rain = 0
KSGV 131610Z 35028G35KT 04/M02 A3001 RMK A01 T00391017  RH  067%=      5-min Rain = 0
KSGV 131615Z 35027G36KT 04/M02 A3001 RMK A01 T00411021  RH  065%=      5-min Rain = 0
KSGV 131620Z 35026G35KT 04/M02 A3001 RMK A01 T00411023  RH  064%=      5-min Rain = 0
KSGV 131625Z 35028G37KT 04/M03 A3002 RMK A01 T00421028  RH  061%=      5-min Rain = 0
KSGV 131630Z 36027G36KT 04/M03 A3002 RMK A01 T00431027  RH  061%=      5-min Rain = 0
KSGV 131635Z 35026G39KT 04/M03 A3002 RMK A01 T00431029  RH  060%=      5-min Rain = 0
KSGV 131640Z 35026G34KT 04/M03 A3003 RMK A01 T00441029  RH  060%=      5-min Rain = 0
KSGV 131645Z 35027G37KT 05/M03 A3003 RMK A01 T00451032  RH  058%=      5-min Rain = 0
KSGV 131650Z 35030G39KT 05/M04 A3003 RMK A01 T00461035  RH  056%=      5-min Rain = 0
KSGV 131655Z 35028G40KT 05/M03 A3003 RMK A01 T00471034  RH  056%=      5-min Rain = 0
KSGV 131700Z 35029G37KT 05/M04 A3003 RMK A01 T00481038  RH  054%=      5-min Rain = 0
KSGV 131705Z 35028G42KT 05/M04 A3003 RMK A01 T00491036  RH  054%=      5-min Rain = 0
KSGV 131710Z 36029G44KT 05/M04 A3004 RMK A01 T00511037  RH  053%=      5-min Rain = 0
KSGV 131715Z 35028G38KT 05/M04 A3004 RMK A01 T00521038  RH  053%=      5-min Rain = 0
KSGV 131720Z 35028G37KT 05/M04 A3004 RMK A01 T00511040  RH  052%=      5-min Rain = 0
KSGV 131725Z 35029G38KT 05/M04 A3004 RMK A01 T00521042  RH  051%=      5-min Rain = 0
KSGV 131730Z 35028G35KT 05/M04 A3004 RMK A01 T00531044  RH  050%=      5-min Rain = 0
KSGV 131735Z 35029G40KT 05/M04 A3004 RMK A01 T00531043  RH  050%=      5-min Rain = 0
KSGV 131740Z 35031G44KT 05/M04 A3004 RMK A01 T00531044  RH  050%=      5-min Rain = 0
KSGV 131745Z 35029G36KT 05/M05 A3005 RMK A01 T00541046  RH  049%=      5-min Rain = 0
KSGV 131750Z 35031G41KT 06/M05 A3004 RMK A01 T00561049  RH  047%=      5-min Rain = 0
KSGV 131755Z 35031G42KT 06/M05 A3004 RMK A01 T00581052  RH  045%=      5-min Rain = 0
KSGV 131800Z 35032G42KT 06/M05 A3004 RMK A01 T00591053  RH  044%=      5-min Rain = 0
KSGV 131805Z 35029G40KT 06/M05 A3004 RMK A01 T00611050  RH  045%=      5-min Rain = 0
KSGV 131810Z 35033G44KT 06/M05 A3004 RMK A01 T00611054  RH  044%=      5-min Rain = 0
KSGV 131815Z 35029G37KT 06/M05 A3004 RMK A01 T00631049  RH  045%=      5-min Rain = 0
KSGV 131820Z 35032G42KT 06/M05 A3004 RMK A01 T00641051  RH  044%=      5-min Rain = 0
KSGV 131825Z 35030G36KT 06/M05 A3004 RMK A01 T00641052  RH  043%=      5-min Rain = 0
KSGV 131830Z 35029G41KT 07/M05 A3004 RMK A01 T00651050  RH  044%=      5-min Rain = 0
KSGV 131835Z 35030G37KT 06/M05 A3004 RMK A01 T00641053  RH  043%=      5-min Rain = 0
KSGV 131840Z 35032G41KT 06/M05 A3004 RMK A01 T00641053  RH  043%=      5-min Rain = 0
KSGV 131845Z 35031G41KT 06/M05 A3004 RMK A01 T00641052  RH  043%=      5-min Rain = 0
KSGV 131850Z 35030G39KT 07/M05 A3004 RMK A01 T00661051  RH  043%=      5-min Rain = 0
KSGV 131855Z 35026G35KT 07/M05 A3003 RMK A01 T00711046  RH  043%=      5-min Rain = 0
KSGV 131900Z 35026G34KT 08/M04 A3003 RMK A01 T00761042  RH  043%=      5-min Rain = 0
KSGV 131905Z 36027G35KT 08/M05 A3003 RMK A01 T00771048  RH  041%=      5-min Rain = 0
KSGV 131910Z 36026G35KT 08/M05 A3003 RMK A01 T00791047  RH  041%=      5-min Rain = 0
KSGV 131915Z 36025G33KT 08/M05 A3003 RMK A01 T00791047  RH  041%=      5-min Rain = 0
KSGV 131920Z 35026G36KT 08/M05 A3003 RMK A01 T00811046  RH  040%=      5-min Rain = 0
KSGV 131925Z 34030G42KT 08/M05 A3003 RMK A01 T00811047  RH  040%=      5-min Rain = 0
KSGV 131930Z 34031G41KT 08/M05 A3004 RMK A01 T00771054  RH  039%=      5-min Rain = 0
KSGV 131935Z 34035G46KT 07/M06 A3004 RMK A01 T00731060  RH  038%=      5-min Rain = 0
KSGV 131940Z 34034G43KT 07/M06 A3004 RMK A01 T00701060  RH  039%=      5-min Rain = 0
KSGV 131945Z 34031G41KT 07/M06 A3004 RMK A01 T00691056  RH  041%=      5-min Rain = 0
KSGV 131950Z 34029G38KT 07/M06 A3004 RMK A01 T00691057  RH  040%=      5-min Rain = 0
KSGV 131955Z 34034G43KT 07/M06 A3004 RMK A01 T00691062  RH  039%=      5-min Rain = 0
KSGV 132000Z 35026G41KT 07/M06 A3004 RMK A01 T00701060  RH  039%=      5-min Rain = 0
KSGV 132005Z 35027G35KT 07/M06 A3004 RMK A01 T00711057  RH  040%=      5-min Rain = 0
KSGV 132010Z 34031G40KT 07/M06 A3004 RMK A01 T00721056  RH  040%=      5-min Rain = 0
KSGV 132015Z 34033G43KT 07/M06 A3004 RMK A01 T00721059  RH  039%=      5-min Rain = 0
KSGV 132020Z 34033G45KT 07/M06 A3004 RMK A01 T00741061  RH  038%=      5-min Rain = 0
KSGV 132025Z 34033G43KT 07/M07 A3004 RMK A01 T00741066  RH  036%=      5-min Rain = 0
KSGV 132030Z 35032G41KT 08/M07 A3004 RMK A01 T00781065  RH  036%=      5-min Rain = 0
KSGV 132035Z 35032G45KT 08/M07 A3004 RMK A01 T00801066  RH  035%=      5-min Rain = 0
KSGV 132040Z 35037G46KT 08/M08 A3004 RMK A01 T00791078  RH  032%=      5-min Rain = 0
KSGV 132045Z 35031G40KT 08/M08 A3005 RMK A01 T00781075  RH  033%=      5-min Rain = 0
KSGV 132050Z 35031G39KT 08/M08 A3005 RMK A01 T00781075  RH  033%=      5-min Rain = 0
KSGV 132055Z 34034G43KT 08/M08 A3005 RMK A01 T00791076  RH  032%=      5-min Rain = 0
KSGV 132100Z 34032G42KT 08/M08 A3005 RMK A01 T00791077  RH  032%=      5-min Rain = 0
KSGV 132105Z 34032G42KT 08/M07 A3005 RMK A01 T00801073  RH  033%=      5-min Rain = 0
KSGV 132110Z 34033G44KT 08/M08 A3005 RMK A01 T00801078  RH  032%=      5-min Rain = 0
KSGV 132115Z 34033G42KT 08/M08 A3005 RMK A01 T00811077  RH  032%=      5-min Rain = 0
KSGV 132120Z 34033G39KT 08/M08 A3005 RMK A01 T00821083  RH  030%=      5-min Rain = 0
KSGV 132125Z 35031G41KT 08/M09 A3005 RMK A01 T00811088  RH  029%=      5-min Rain = 0
KSGV 132130Z 35026G32KT 08/M08 A3005 RMK A01 T00831080  RH  031%=      5-min Rain = 0
KSGV 132135Z 34031G42KT 08/M08 A3005 RMK A01 T00831081  RH  030%=      5-min Rain = 0
KSGV 132140Z 34026G33KT 09/M08 A3005 RMK A01 T00851079  RH  031%=      5-min Rain = 0
KSGV 132145Z 34028G37KT 09/M08 A3005 RMK A01 T00851081  RH  030%=      5-min Rain = 0
KSGV 132150Z 34029G41KT 08/M09 A3005 RMK A01 T00831090  RH  028%=      5-min Rain = 0
KSGV 132155Z 35029G36KT 08/M10 A3005 RMK A01 T00821096  RH  027%=      5-min Rain = 0
KSGV 132200Z 34029G38KT 08/M10 A3006 RMK A01 T00821096  RH  027%=      5-min Rain = 0
KSGV 132205Z 35028G36KT 08/M10 A3006 RMK A01 T00821096  RH  027%=      5-min Rain = 0
KSGV 132210Z 35027G35KT 08/M10 A3006 RMK A01 T00801096  RH  027%=      5-min Rain = 0
KSGV 132215Z 35030G38KT 08/M10 A3006 RMK A01 T00801102  RH  026%=      5-min Rain = 0
KSGV 132220Z 34026G35KT 08/M10 A3007 RMK A01 T00791096  RH  028%=      5-min Rain = 0
KSGV 132225Z 35027G35KT 08/M10 A3007 RMK A01 T00781099  RH  027%=      5-min Rain = 0
KSGV 132230Z 35027G34KT 08/M10 A3007 RMK A01 T00781103  RH  026%=      5-min Rain = 0
KSGV 132235Z 34028G35KT 08/M10 A3007 RMK A01 T00771103  RH  027%=      5-min Rain = 0
KSGV 132240Z 34026G32KT 08/M10 A3008 RMK A01 T00761100  RH  027%=      5-min Rain = 0
KSGV 132245Z 34023G33KT 08/M10 A3008 RMK A01 T00751099  RH  028%=      5-min Rain = 0
KSGV 132250Z 34024G32KT 08/M10 A3008 RMK A01 T00751100  RH  028%=      5-min Rain = 0
KSGV 132255Z 35022G33KT 07/M10 A3008 RMK A01 T00731096  RH  029%=      5-min Rain = 0
KSGV 132300Z 34023G29KT 07/M10 A3008 RMK A01 T00721096  RH  029%=      5-min Rain = 0
KSGV 132305Z 34024G33KT 07/M10 A3008 RMK A01 T00711096  RH  029%=      5-min Rain = 0
KSGV 132310Z 34027G35KT 07/M11 A3009 RMK A01 T00721105  RH  027%=      5-min Rain = 0
KSGV 132315Z 34024G32KT 07/M10 A3009 RMK A01 T00691101  RH  028%=      5-min Rain = 0
KSGV 132320Z 34024G31KT 07/M10 A3009 RMK A01 T00681101  RH  029%=      5-min Rain = 0
KSGV 132325Z 34023G29KT 07/M10 A3009 RMK A01 T00661098  RH  030%=      5-min Rain = 0
KSGV 132330Z 34021KT 06/M10 A301 RMK A01 T00641095  RH  031%=      5-min Rain = 0
KSGV 132335Z 34020G26KT 06/M09 A301 RMK A01 T00631093  RH  032%=      5-min Rain = 0
KSGV 132340Z 34019G24KT 06/M09 A301 RMK A01 T00601090  RH  033%=      5-min Rain = 0
KSGV 132345Z 34019G24KT 06/M09 A301 RMK A01 T00601091  RH  033%=      5-min Rain = 0
KSGV 132350Z 34018G24KT 06/M09 A301 RMK A01 T00581091  RH  033%=      5-min Rain = 0
KSGV 132355Z 34018G23KT 06/M09 A301 RMK A01 T00571091  RH  033%=      5-min Rain = 0
KSGV 140000Z 34018KT 06/M09 A3011 RMK A01 T00551091  RH  034%=      5-min Rain = 0
KSGV 140005Z 34018KT 05/M09 A3011 RMK A01 T00541091  RH  034%=      5-min Rain = 0
KSGV 140010Z 34019G24KT 05/M09 A3011 RMK A01 T00531093  RH  034%=      5-min Rain = 0
KSGV 140015Z 34019G25KT 05/M09 A3011 RMK A01 T00531094  RH  034%=      5-min Rain = 0
KSGV 140020Z 33017KT 05/M09 A3011 RMK A01 T00511092  RH  035%=      5-min Rain = 0
KSGV 140025Z 33015KT 05/M09 A3012 RMK A01 T00481088  RH  037%=      5-min Rain = 0
KSGV 140030Z 33016G23KT 05/M09 A3012 RMK A01 T00481088  RH  037%=      5-min Rain = 0
KSGV 140035Z 33014KT 05/M09 A3012 RMK A01 T00451085  RH  038%=      5-min Rain = 0
KSGV 140040Z 33013KT 04/M08 A3012 RMK A01 T00431083  RH  039%=      5-min Rain = 0
KSGV 140045Z 33012G17KT 04/M08 A3013 RMK A01 T00401080  RH  041%=      5-min Rain = 0
KSGV 140050Z 33014KT 04/M08 A3013 RMK A01 T00401081  RH  041%=      5-min Rain = 0
KSGV 140055Z 33013KT 04/M08 A3014 RMK A01 T00381080  RH  042%=      5-min Rain = 0
KSGV 140100Z 33012KT 04/M08 A3014 RMK A01 T00361079  RH  043%=      5-min Rain = 0
KSGV 140105Z 34015KT 04/M08 A3014 RMK A01 T00381083  RH  041%=      5-min Rain = 0
KSGV 140110Z 34014KT 04/M08 A3014 RMK A01 T00381083  RH  041%=      5-min Rain = 0
KSGV 140115Z 33013G18KT 04/M08 A3015 RMK A01 T00361083  RH  041%=      5-min Rain = 0
KSGV 140120Z 33014G19KT 03/M08 A3015 RMK A01 T00341082  RH  042%=      5-min Rain = 0
KSGV 140125Z 33015KT 04/M09 A3015 RMK A01 T00361085  RH  041%=      5-min Rain = 0
KSGV 140130Z 33014G20KT 03/M08 A3016 RMK A01 T00341084  RH  041%=      5-min Rain = 0
KSGV 140135Z 33016KT 04/M09 A3016 RMK A01 T00351087  RH  040%=      5-min Rain = 0
KSGV 140140Z 34016KT 04/M09 A3016 RMK A01 T00351088  RH  040%=      5-min Rain = 0
KSGV 140145Z 33013KT 03/M09 A3016 RMK A01 T00321085  RH  042%=      5-min Rain = 0
KSGV 140150Z 33014KT 03/M09 A3016 RMK A01 T00301085  RH  042%=      5-min Rain = 0
KSGV 140155Z 33014KT 03/M09 A3016 RMK A01 T00311086  RH  042%=      5-min Rain = 0
KSGV 140200Z 33015KT 03/M09 A3017 RMK A01 T00301086  RH  042%=      5-min Rain = 0
KSGV 140205Z 33013KT 03/M08 A3017 RMK A01 T00281084  RH  043%=      5-min Rain = 0
KSGV 140210Z 33013KT 03/M08 A3017 RMK A01 T00261084  RH  044%=      5-min Rain = 0
KSGV 140215Z 33014KT 03/M09 A3017 RMK A01 T00271086  RH  043%=      5-min Rain = 0
KSGV 140220Z 33012KT 03/M08 A3017 RMK A01 T00261084  RH  044%=      5-min Rain = 0
KSGV 140225Z 33012KT 02/M08 A3018 RMK A01 T00231083  RH  046%=      5-min Rain = 0
KSGV 140230Z 33013KT 02/M08 A3018 RMK A01 T00221083  RH  046%=      5-min Rain = 0
KSGV 140235Z 33013G18KT 02/M08 A3018 RMK A01 T00231084  RH  045%=      5-min Rain = 0
KSGV 140240Z 33013KT 02/M08 A3018 RMK A01 T00211083  RH  046%=      5-min Rain = 0
KSGV 140245Z 34014KT 02/M08 A3018 RMK A01 T00211084  RH  046%=      5-min Rain = 0
KSGV 140250Z 33013KT 02/M08 A3018 RMK A01 T00191083  RH  047%=      5-min Rain = 0
KSGV 140255Z 33013KT 02/M08 A3018 RMK A01 T00181082  RH  047%=      5-min Rain = 0
KSGV 140300Z 33012KT 02/M08 A3019 RMK A01 T00181082  RH  047%=      5-min Rain = 0
KSGV 140305Z 33012KT 02/M08 A3019 RMK A01 T00161082  RH  048%=      5-min Rain = 0
KSGV 140310Z 33011KT 02/M08 A3019 RMK A01 T00151081  RH  049%=      5-min Rain = 0
KSGV 140315Z 33013KT 01/M08 A3019 RMK A01 T00141083  RH  048%=      5-min Rain = 0
KSGV 140320Z 33013KT 02/M08 A302 RMK A01 T00151083  RH  048%=      5-min Rain = 0
KSGV 140325Z 34013KT 01/M08 A302 RMK A01 T00141082  RH  049%=      5-min Rain = 0
KSGV 140330Z 34013KT 01/M08 A302 RMK A01 T00131083  RH  048%=      5-min Rain = 0
KSGV 140335Z 34013KT 01/M08 A302 RMK A01 T00131083  RH  049%=      5-min Rain = 0
KSGV 140340Z 34013G18KT 01/M09 A302 RMK A01 T00131085  RH  048%=      5-min Rain = 0
KSGV 140345Z 34013G18KT 01/M09 A302 RMK A01 T00131086  RH  047%=      5-min Rain = 0
KSGV 140350Z 34014KT 01/M09 A302 RMK A01 T00141088  RH  047%=      5-min Rain = 0
KSGV 140355Z 34014KT 01/M09 A302 RMK A01 T00141088  RH  047%=      5-min Rain = 0
KSGV 140400Z 34013KT 01/M09 A3021 RMK A01 T00121086  RH  048%=      5-min Rain = 0
KSGV 140405Z 34013KT 01/M09 A3021 RMK A01 T00111086  RH  048%=      5-min Rain = 0
KSGV 140410Z 33014KT 01/M09 A3021 RMK A01 T00111087  RH  048%=      5-min Rain = 0
KSGV 140415Z 33015KT 01/M09 A3021 RMK A01 T00111088  RH  048%=      5-min Rain = 0
KSGV 140420Z 33015KT 01/M09 A3021 RMK A01 T00121089  RH  047%=      5-min Rain = 0
KSGV 140425Z 33016KT 01/M09 A3021 RMK A01 T00121090  RH  047%=      5-min Rain = 0
KSGV 140430Z 33014KT 01/M09 A3021 RMK A01 T00111089  RH  047%=      5-min Rain = 0
KSGV 140435Z 34015KT 01/M09 A3021 RMK A01 T00101090  RH  047%=      5-min Rain = 0
KSGV 140440Z 34015G20KT 01/M09 A3021 RMK A01 T00111091  RH  047%=      5-min Rain = 0
KSGV 140445Z 34015G21KT 01/M09 A3021 RMK A01 T00121093  RH  046%=      5-min Rain = 0
KSGV 140450Z 34015KT 01/M09 A3021 RMK A01 T00111093  RH  046%=      5-min Rain = 0
KSGV 140455Z 34015KT 01/M09 A3021 RMK A01 T00101093  RH  046%=      5-min Rain = 0
KSGV 140500Z 35016G21KT 01/M10 A3021 RMK A01 T00131096  RH  044%=      5-min Rain = 0
KSGV 140505Z 34016KT 01/M10 A3021 RMK A01 T00131097  RH  044%=      5-min Rain = 0
KSGV 140510Z 35017G23KT 02/M10 A3021 RMK A01 T00151099  RH  043%=      5-min Rain = 0
KSGV 140515Z 35017KT 01/M10 A3021 RMK A01 T00141098  RH  043%=      5-min Rain = 0
KSGV 140520Z 34016KT 01/M10 A3021 RMK A01 T00121097  RH  044%=      5-min Rain = 0
KSGV 140525Z 34015G20KT 01/M10 A3022 RMK A01 T00111096  RH  044%=      5-min Rain = 0
KSGV 140530Z 34016G21KT 01/M10 A3022 RMK A01 T00111096  RH  044%=      5-min Rain = 0
KSGV 140535Z 34015G20KT 01/M10 A3022 RMK A01 T00111096  RH  045%=      5-min Rain = 0
KSGV 140540Z 34015KT 01/M10 A3022 RMK A01 T00091095  RH  046%=      5-min Rain = 0
KSGV 140545Z 34014G19KT 01/M09 A3022 RMK A01 T00071094  RH  047%=      5-min Rain = 0
KSGV 140550Z 34014KT 01/M09 A3022 RMK A01 T00061094  RH  047%=      5-min Rain = 0
KSGV 140555Z 34014KT 00/M09 A3022 RMK A01 T00041093  RH  048%=      5-min Rain = 0
KSGV 140600Z 34014KT 00/M09 A3022 RMK A01 T00041093  RH  048%=      5-min Rain = 0

Page generated in 0.0088 seconds.